Flight Track Log - Related Links

Times and Time Zones

All times are in EDT time to prevent confusion due to time zone crossing. See the SWA267 flight status page for this flight to view local times or setup timezone preferences in your user account.

Time Position Orientation Groundspeed Altitude Reporting Facility
EDT Latitude Longitude Course Direction KTS MPH feet Rate Location/Type
Thu 06:18:11 PM 40.8431 -111.9669 355° North 187 215 6,200  Level Salt Lake Center
Thu 06:19:06 PM 40.8942 -111.9750 353° North 220 253 8,000 2,450 Climbing Salt Lake Center
Thu 06:20:11 PM 40.9708 -111.9606 North 262 302 11,100 2,551 Climbing Salt Lake Center
Thu 06:21:13 PM 40.9875 -111.8636 77° East 283 326 13,400 2,129 Climbing Salt Lake Center
Thu 06:22:15 PM 41.0072 -111.7564 76° East 314 361 15,500 2,146 Climbing Salt Lake Center
Thu 06:23:16 PM 41.0267 -111.6239 79° East 370 426 17,800 2,634 Climbing Salt Lake Center
Thu 06:24:18 PM 41.0425 -111.4536 83° East 389 448 20,900 2,683 Climbing Salt Lake Center
Thu 06:25:19 PM 41.0561 -111.3042 83° East 410 472 23,300 2,195 Climbing Salt Lake Center
Thu 06:26:21 PM 41.0692 -111.1533 83° East 412 474 25,400 1,887 Climbing Salt Lake Center
Thu 06:27:23 PM 41.0861 -110.9964 82° East 425 489 27,200 1,854 Climbing Salt Lake Center
Thu 06:28:24 PM 41.1033 -110.8358 82° East 439 505 29,200 1,902 Climbing Salt Lake Center
Thu 06:29:26 PM 41.1214 -110.6689 82° East 442 509 31,100 1,707 Climbing Salt Lake Center
Thu 06:30:27 PM 41.1394 -110.4883 82° East 442 509 32,700 1,210 Climbing Salt Lake Center
Thu 06:31:30 PM 41.1553 -110.3303 82° East 453 521 33,600 1,210 Climbing Salt Lake Center
Thu 06:32:31 PM 41.1744 -110.1425 82° East 459 528 35,200 1,328 Climbing Salt Lake Center
Thu 06:33:32 PM 41.1906 -109.9800 82° East 463 533 36,300 878 Climbing Salt Lake Center
Thu 06:34:34 PM 41.2069 -109.8167 82° East 468 539 37,000 339 Climbing Salt Lake Center
Thu 06:35:36 PM 41.2247 -109.6275 83° East 465 535 37,000  Level Salt Lake Center
Thu 06:36:37 PM 41.2400 -109.4675 83° East 458 527 37,000  Level Salt Lake Center
Thu 06:37:39 PM 41.2572 -109.2808 83° East 460 529 37,000  Level Salt Lake Center
Thu 06:38:41 PM 41.2728 -109.1228 82° East 459 528 37,000  Level Salt Lake Center
Thu 06:39:42 PM 41.2897 -108.9397 83° East 455 524 37,000  Level Salt Lake Center
Thu 06:40:44 PM 41.3036 -108.7817 83° East 455 524 37,000  Level Salt Lake Center
Thu 06:41:46 PM 41.3189 -108.5958 84° East 455 524 37,000  Level Salt Lake Center
Thu 06:42:47 PM 41.3331 -108.4369 83° East 454 522 37,000  Level Salt Lake Center
Thu 06:43:02 PM 41.3372 -108.3811 84° East 458 527 37,000  Level Denver Center
Thu 06:44:04 PM 41.3500 -108.2228 84° East 454 522 37,000  Level Denver Center
Thu 06:45:06 PM 41.3656 -108.0358 84° East 455 524 37,000  Level Denver Center
Thu 06:46:08 PM 41.3781 -107.8758 84° East 455 524 37,000  Level Denver Center
Thu 06:47:10 PM 41.3939 -107.6886 84° East 457 526 37,000  Level Denver Center
Thu 06:48:12 PM 41.4053 -107.5286 85° East 454 522 37,000  Level Denver Center
Thu 06:49:14 PM 41.4194 -107.3419 84° East 455 524 37,000  Level Denver Center
Thu 06:50:15 PM 41.4319 -107.1828 84° East 454 522 37,000  Level Denver Center
Thu 06:51:17 PM 41.4450 -106.9928 85° East 460 529 37,000  Level Denver Center
Thu 06:52:19 PM 41.4572 -106.8311 84° East 461 531 37,000  Level Denver Center
Thu 06:53:21 PM 41.4706 -106.6400 85° East 464 534 37,000  Level Denver Center
Thu 06:54:23 PM 41.4822 -106.4836 84° East 467 537 37,000  Level Denver Center
Thu 06:55:25 PM 41.4953 -106.2922 85° East 467 537 37,000  Level Denver Center
Thu 06:56:27 PM 41.5039 -106.1261 86° East 469 540 37,000  Level Denver Center
Thu 06:57:28 PM 41.5164 -105.9328 85° East 468 539 37,000  Level Denver Center
Thu 06:58:30 PM 41.5261 -105.7681 85° East 467 537 37,000  Level Denver Center
Thu 06:59:32 PM 41.5378 -105.5731 85° East 471 542 37,000  Level Denver Center
Thu 07:00:34 PM 41.5481 -105.4061 85° East 472 543 37,000  Level Denver Center
Thu 07:01:36 PM 41.5575 -105.2406 86° East 470 541 37,000  Level Denver Center
Thu 07:02:38 PM 41.5686 -105.0478 86° East 468 539 37,000  Level Denver Center
Thu 07:03:39 PM 41.5761 -104.8833 86° East 466 536 37,000  Level Denver Center
Thu 07:04:41 PM 41.5875 -104.6919 85° East 466 536 37,000  Level Denver Center
Thu 07:05:43 PM 41.5958 -104.5275 86° East 466 536 37,000  Level Denver Center
Thu 07:06:45 PM 41.6050 -104.3331 86° East 472 543 37,000  Level Denver Center
Thu 07:07:47 PM 41.6131 -104.1667 86° East 471 542 37,000  Level Denver Center
Thu 07:08:48 PM 41.6214 -103.9744 87° East 467 537 37,000  Level Denver Center
Thu 07:09:50 PM 41.6283 -103.8097 87° East 466 536 37,000  Level Denver Center
Thu 07:10:52 PM 41.6378 -103.6181 86° East 466 536 37,000  Level Denver Center
Thu 07:11:54 PM 41.6456 -103.4519 86° East 469 540 37,000  Level Denver Center
Thu 07:12:55 PM 41.6519 -103.2581 87° East 469 540 37,000  Level Denver Center
Thu 07:13:57 PM 41.6592 -103.0911 87° East 471 542 37,000  Level Denver Center
Thu 07:14:59 PM 41.6642 -102.9258 88° East 468 539 37,000  Level Denver Center
Thu 07:16:01 PM 41.6717 -102.7331 87° East 467 537 37,000  Level Denver Center
Thu 07:17:03 PM 41.6767 -102.5442 88° East 468 539 37,000  Level Denver Center
Thu 07:18:04 PM 41.6831 -102.3764 87° East 472 543 37,000  Level Denver Center
Thu 07:19:06 PM 41.6889 -102.2069 87° East 476 548 37,000  Level Denver Center
Thu 07:20:08 PM 41.6944 -102.0100 88° East 475 547 37,000  Level Denver Center
Thu 07:21:10 PM 41.6994 -101.8406 88° East 476 548 37,000  Level Denver Center
Thu 07:22:12 PM 41.7031 -101.6436 89° East 474 545 37,000  Level Denver Center
Thu 07:23:13 PM 41.7075 -101.4753 88° East 472 543 37,000  Level Denver Center
Thu 07:24:15 PM 41.7117 -101.2794 88° East 473 544 37,000  Level Denver Center
Thu 07:25:17 PM 41.7164 -101.1119 88° East 470 541 37,000  Level Denver Center
Thu 07:26:19 PM 41.7194 -100.9456 89° East 468 539 37,000  Level Denver Center
Thu 07:27:21 PM 41.7233 -100.7528 88° East 464 534 37,000  Level Denver Center
Thu 07:28:23 PM 41.7250 -100.5883 89° East 461 531 37,000  Level Denver Center
Thu 07:29:25 PM 41.7286 -100.3964 88° East 460 529 37,000  Level Denver Center
Thu 07:30:27 PM 41.7303 -100.2322 89° East 460 529 37,000  Level Denver Center
Thu 07:31:29 PM 41.7331 -100.0425 89° East 457 526 37,000  Level Denver Center
Thu 07:32:30 PM 41.7353 -99.8764 89° East 464 534 37,000  Level Denver Center
Thu 07:33:32 PM 41.7367 -99.7119 89° East 461 531 37,000  Level Denver Center
Thu 07:34:34 PM 41.7383 -99.5367 89° East 468 539 37,000  Level Denver Center
Thu 07:35:36 PM 41.7381 -99.3261 90° East 469 540 37,000  Level Denver Center
Thu 07:36:38 PM 41.7389 -99.1475 90° East 475 547 37,000  Level Denver Center
Thu 07:37:23 PM 41.7397 -99.0400 89° East 476 548 37,000  Level Minneapolis Center
Thu 07:38:25 PM 41.7406 -98.8603 90° East 479 551 37,000  Level Minneapolis Center
Thu 07:39:27 PM 41.7403 -98.6436 90° East 480 552 37,000  Level Minneapolis Center
Thu 07:40:29 PM 41.7403 -98.4603 90° East 486 559 37,000  Level Minneapolis Center
Thu 07:41:30 PM 41.7392 -98.2758 90° East 490 564 37,000  Level Minneapolis Center
Thu 07:42:32 PM 41.7386 -98.0811 90° East 491 565 37,000  Level Minneapolis Center
Thu 07:43:34 PM 41.7378 -97.8978 90° East 492 566 37,000  Level Minneapolis Center
Thu 07:44:36 PM 41.7361 -97.7153 91° East 492 566 37,000  Level Minneapolis Center
Thu 07:45:37 PM 41.7336 -97.5319 91° East 492 566 37,000  Level Minneapolis Center
Thu 07:46:39 PM 41.7319 -97.3483 91° East 493 567 37,000  Level Minneapolis Center
Thu 07:47:41 PM 41.7292 -97.1650 91° East 493 567 37,000  Level Minneapolis Center
Thu 07:48:43 PM 41.7261 -96.9814 91° East 493 567 37,000  Level Minneapolis Center
Thu 07:49:45 PM 41.7236 -96.8003 91° East 489 563 37,000  Level Minneapolis Center
Thu 07:50:47 PM 41.7206 -96.5811 91° East 489 563 37,000  Level Minneapolis Center
Thu 07:51:48 PM 41.7167 -96.4008 92° East 483 556 37,000  Level Minneapolis Center
Thu 07:52:50 PM 41.7131 -96.2211 91° East 479 551 37,000  Level Minneapolis Center
Thu 07:53:52 PM 41.7086 -96.0414 92° East 479 551 37,000  Level Minneapolis Center
Thu 07:54:54 PM 41.7047 -95.8617 92° East 478 550 37,000  Level Minneapolis Center
Thu 07:55:56 PM 41.6994 -95.6858 92° East 474 545 37,000  Level Minneapolis Center
Thu 07:56:57 PM 41.6956 -95.5083 92° East 473 544 37,000  Level Minneapolis Center
Thu 07:57:59 PM 41.6897 -95.3325 92° East 472 543 37,000  Level Minneapolis Center
Thu 07:59:01 PM 41.6842 -95.1561 92° East 474 545 37,000  Level Minneapolis Center
Thu 08:00:03 PM 41.6783 -94.9781 92° East 478 550 37,000  Level Minneapolis Center
Thu 08:01:05 PM 41.6725 -94.7656 92° East 476 548 37,000  Level Minneapolis Center
Thu 08:02:06 PM 41.6644 -94.5872 93° East 479 551 37,000  Level Minneapolis Center
Thu 08:03:08 PM 41.6569 -94.4075 93° East 484 557 37,000  Level Minneapolis Center
Thu 08:04:10 PM 41.6508 -94.2286 93° East 483 556 37,000  Level Minneapolis Center
Thu 08:05:12 PM 41.6422 -94.0619 94° East 481 554 37,000  Level Minneapolis Center
Thu 08:06:14 PM 41.6333 -93.8481 93° East 482 555 37,000  Level Minneapolis Center
Thu 08:07:16 PM 41.6253 -93.6700 93° East 483 556 37,000  Level Minneapolis Center
Thu 08:08:17 PM 41.6086 -93.4919 97° East 484 557 37,000  Level Minneapolis Center
Thu 08:09:19 PM 41.5917 -93.3142 97° East 484 557 37,000  Level Minneapolis Center
Thu 08:10:21 PM 41.5733 -93.1372 98° East 483 556 37,000  Level Minneapolis Center
Thu 08:11:23 PM 41.5558 -92.9608 97° East 483 556 37,000  Level Minneapolis Center
Thu 08:12:25 PM 41.5342 -92.7483 98° East 482 555 37,000  Level Minneapolis Center
Thu 08:13:22 PM 41.5169 -92.5797 98° East 485 558 37,000 -454 Level Chicago Center
Thu 08:14:24 PM 41.4983 -92.4042 98° East 484 557 36,100 -871 Descending Chicago Center
Thu 08:15:26 PM 41.4800 -92.2322 98° East 476 548 35,200 -1,258 Descending Chicago Center
Thu 08:16:28 PM 41.4614 -92.0608 98° East 473 544 33,500 -1,355 Descending Chicago Center
Thu 08:17:30 PM 41.4414 -91.8897 99° East 473 544 32,400 -1,113 Descending Chicago Center
Thu 08:18:32 PM 41.4194 -91.6875 98° East 469 540 31,200 -1,344 Descending Chicago Center
Thu 08:19:35 PM 41.4003 -91.5236 99° East 458 527 29,600 -1,056 Descending Chicago Center
Thu 08:20:37 PM 41.3811 -91.3636 99° East 447 514 29,000 -290 Descending Chicago Center
Thu 08:21:39 PM 41.3603 -91.1833 99° East 439 505 29,000 -48 Level Chicago Center
Thu 08:22:41 PM 41.3400 -91.0194 99° East 446 513 28,900 -1,210 Descending Chicago Center
Thu 08:23:43 PM 41.3194 -90.8506 99° East 459 528 26,500 -2,226 Descending Chicago Center
Thu 08:24:45 PM 41.3011 -90.6822 98° East 460 529 24,300 -1,210 Descending Chicago Center
Thu 08:25:47 PM 41.3161 -90.5092 83° East 466 536 24,000 -484 Descending Chicago Center
Thu 08:26:49 PM 41.3356 -90.3436 81° East 455 524 23,300 -1,355 Descending Chicago Center
Thu 08:27:51 PM 41.3539 -90.1822 81° East 443 510 21,200 -2,226 Descending Chicago Center
Thu 08:28:53 PM 41.3747 -89.9956 81° East 424 488 18,700 -2,371 Descending Chicago Center
Thu 08:29:55 PM 41.3919 -89.8475 81° East 407 468 16,300 -1,839 Descending Chicago Center
Thu 08:30:57 PM 41.4067 -89.7061 82° East 386 444 14,900 -1,210 Descending Chicago Center
Thu 08:31:59 PM 41.4211 -89.5703 82° East 371 427 13,800 -1,016 Descending Chicago Center
Thu 08:33:01 PM 41.4347 -89.4383 82° East 363 418 12,800 -968 Descending Chicago Center
Thu 08:34:03 PM 41.4481 -89.3119 82° East 347 399 11,800 -968 Descending Chicago Center
Thu 08:35:05 PM 41.4633 -89.1744 82° East 343 395 10,800 -919 Descending Chicago Center
Thu 08:36:07 PM 41.4742 -89.0517 83° East 338 389 9,900 -919 Descending Chicago Center
Thu 08:37:09 PM 41.4853 -88.9392 82° East 312 359 8,900 -1,065 Descending Chicago Center
Thu 08:38:11 PM 41.4986 -88.8072 82° East 302 348 7,700 -919 Descending Chicago Center
Thu 08:39:13 PM 41.5103 -88.7006 82° East 296 341 7,000 -339 Descending Chicago Center
Thu 08:40:15 PM 41.5194 -88.5992 83° East 282 325 7,000 -242 Level Chicago Center
Thu 08:41:17 PM 41.5292 -88.4967 83° East 280 322 6,500 -532 Descending Chicago Center
Thu 08:42:19 PM 41.5408 -88.3933 81° East 282 325 5,900 -726 Descending Chicago Center
Thu 08:43:21 PM 41.5517 -88.2878 82° East 286 329 5,000 -435 Descending Chicago Center
Thu 08:44:23 PM 41.5653 -88.1656 81° East 278 320 5,000  Level Chicago Center
Thu 08:45:25 PM 41.5761 -88.0631 82° East 277 319 5,000  Level Chicago Center
Thu 08:46:27 PM 41.5858 -87.9597 83° East 277 319 5,000  Level Chicago Center
Thu 08:47:29 PM 41.5878 -87.8553 89° East 279 321 5,000  Level Chicago Center
Thu 08:48:32 PM 41.5853 -87.7506 92° East 281 323 5,000  Level Chicago Center
Thu 08:49:34 PM 41.5839 -87.6444 91° East 284 327 5,000 -339 Level Chicago Center
Thu 08:50:36 PM 41.5978 -87.5581 78° East 267 307 4,300 -919 Descending Chicago Center
Thu 08:51:38 PM 41.6622 -87.5803 346° North 240 276 3,100 -823 Descending Chicago Center
Thu 08:52:40 PM 41.7008 -87.6331 314° West 220 253 2,600 -462 Descending Chicago Center
Thu 08:52:56 PM 41.7167 -87.6500 321° Northwest 174 200 2,500 -632 Descending Chicago TRACON
Thu 08:53:56 PM 41.7333 -87.6833 304° West 157 181 1,800 -737 Descending Chicago TRACON
Thu 08:54:50 PM 41.7667 -87.7167 323° Northwest 131 151 1,100 -778 Descending Chicago TRACON

Login

Don't have an account? Register now (free) for customized features, flight alerts, and more!